createdAt,value
2022-10-01T00:02:56.313Z,5.38
2022-10-01T00:07:58.139Z,6.07
2022-10-01T00:12:59.922Z,6.38
2022-10-01T00:18:01.732Z,7.10
2022-10-01T00:23:03.511Z,7.47
2022-10-01T00:28:05.379Z,7.85
2022-10-01T00:33:07.242Z,7.93
2022-10-01T00:38:09.029Z,8.23
2022-10-01T00:43:20.503Z,9.52
2022-10-01T00:48:23.249Z,9.82
2022-10-01T00:53:25.555Z,10.02
2022-10-01T00:58:27.862Z,10.32
2022-10-01T01:03:29.749Z,10.67
2022-10-01T01:08:31.546Z,10.57
2022-10-01T01:13:42.343Z,10.27
2022-10-01T01:18:49.990Z,9.65
2022-10-01T01:23:51.768Z,10.45
2022-10-01T01:28:56.768Z,11.50
2022-10-01T01:33:59.477Z,11.50
2022-10-01T01:39:03.635Z,10.25
2022-10-01T01:44:08.057Z,10.43
2022-10-01T01:49:09.924Z,11.75
2022-10-01T01:54:11.970Z,12.20
2022-10-01T01:59:14.120Z,10.95
2022-10-01T02:04:24.304Z,10.90
2022-10-01T02:09:34.932Z,11.45
2022-10-01T02:14:45.105Z,12.55
2022-10-01T02:19:56.955Z,12.60
2022-10-01T02:25:00.902Z,12.77
2022-10-01T02:30:05.343Z,12.60
2022-10-01T02:35:08.480Z,12.35
2022-10-01T02:40:11.788Z,11.45
2022-10-01T02:50:15.449Z,12.77
2022-10-01T02:55:21.979Z,12.25
2022-10-01T03:00:23.855Z,12.73
2022-10-01T03:05:26.063Z,11.73
2022-10-01T03:10:27.965Z,11.98
2022-10-01T03:15:29.760Z,12.35
2022-10-01T03:20:31.551Z,11.43
2022-10-01T03:25:33.342Z,11.52
2022-10-01T03:30:35.147Z,10.30
2022-10-01T03:35:37.017Z,9.40
2022-10-01T03:40:38.794Z,8.75
2022-10-01T03:45:40.595Z,7.65
2022-10-01T03:50:42.431Z,6.43
2022-10-01T03:55:44.235Z,6.55
2022-10-01T04:00:46.683Z,6.28
2022-10-01T04:05:48.722Z,7.20
2022-10-01T04:10:50.716Z,5.68
2022-10-01T04:15:52.669Z,5.85
2022-10-01T04:20:54.479Z,5.55
2022-10-01T04:26:00.371Z,5.88
2022-10-01T04:31:02.203Z,4.97
2022-10-01T04:36:03.989Z,5.30
2022-10-01T04:41:05.853Z,5.03
2022-10-01T04:46:07.636Z,5.25
2022-10-01T04:51:09.475Z,4.22
2022-10-01T04:56:11.251Z,4.65
2022-10-01T05:01:13.076Z,5.22
2022-10-01T05:06:14.929Z,4.68
2022-10-01T05:11:16.727Z,4.93
2022-10-01T05:16:18.568Z,4.07
2022-10-01T05:21:20.622Z,4.30
2022-10-01T05:26:22.423Z,4.50
2022-10-01T05:31:24.252Z,4.57
2022-10-01T05:36:26.123Z,4.60
2022-10-01T05:41:27.898Z,4.57
2022-10-01T05:46:29.699Z,4.43
2022-10-01T05:51:31.753Z,3.88
2022-10-01T05:56:33.799Z,4.20
2022-10-01T06:01:35.850Z,4.20
2022-10-01T06:06:37.913Z,4.63
2022-10-01T06:11:40.052Z,4.43
2022-10-01T06:16:41.859Z,4.50
2022-10-01T06:21:43.679Z,5.03
2022-10-01T06:26:45.455Z,5.20
2022-10-01T06:31:47.299Z,5.90
2022-10-01T06:36:49.165Z,5.78
2022-10-01T06:41:50.956Z,5.60
2022-10-01T06:46:52.730Z,6.13
2022-10-01T06:51:54.515Z,6.03
2022-10-01T06:56:56.291Z,5.45
2022-10-01T07:01:58.105Z,5.72
2022-10-01T07:06:59.933Z,6.22
2022-10-01T07:12:01.799Z,5.93
2022-10-01T07:17:03.591Z,5.95
2022-10-01T07:22:05.465Z,6.00
2022-10-01T07:27:07.668Z,6.03
2022-10-01T07:32:09.608Z,5.57
2022-10-01T07:37:11.419Z,5.90
2022-10-01T07:42:13.208Z,6.88
2022-10-01T07:47:15.062Z,6.45
2022-10-01T07:52:16.889Z,6.97
2022-10-01T07:57:18.692Z,6.78
2022-10-01T08:02:20.539Z,7.05
2022-10-01T08:07:22.358Z,7.63
2022-10-01T08:12:24.172Z,4.70
2022-10-01T08:17:29.358Z,3.97
2022-10-01T08:22:31.449Z,3.78
2022-10-01T08:27:33.364Z,3.97
2022-10-01T08:32:35.163Z,3.33
2022-10-01T08:37:37.110Z,4.05
2022-10-01T08:42:43.782Z,2.95
2022-10-01T08:47:51.827Z,2.78
2022-10-01T08:52:59.512Z,2.83
2022-10-01T08:58:02.851Z,2.05
2022-10-01T09:03:05.845Z,2.33
2022-10-01T09:13:09.343Z,2.35
2022-10-01T09:18:13.976Z,3.08
2022-10-01T09:23:23.399Z,2.45
2022-10-01T21:50:27.546Z,1.70
2022-10-01T21:55:32.319Z,1.75
2022-10-01T22:00:34.176Z,1.45
2022-10-01T22:05:35.966Z,1.40
2022-10-01T22:10:39.437Z,2.00
2022-10-01T22:15:43.470Z,3.40
2022-10-01T22:20:45.996Z,3.63
2022-10-01T22:25:51.170Z,2.80
2022-10-01T22:30:53.799Z,3.40
2022-10-01T22:36:02.289Z,3.65
2022-10-01T22:41:07.615Z,3.25
2022-10-01T22:46:21.639Z,3.00
2022-10-01T22:51:23.424Z,3.33
2022-10-01T22:56:40.796Z,3.95
2022-10-01T23:02:01.325Z,3.90
2022-10-01T23:07:18.511Z,4.03
2022-10-01T23:12:41.168Z,3.20
2022-10-01T23:18:01.385Z,3.60
2022-10-01T23:23:10.060Z,4.30
2022-10-01T23:28:22.374Z,4.40
2022-10-01T23:33:36.201Z,3.88
2022-10-01T23:38:49.943Z,4.50
2022-10-01T23:48:57.971Z,4.50
2022-10-01T23:54:12.809Z,4.45
2022-10-01T23:59:27.637Z,5.35
